sensor_id;sensor_type;location;lat;lon;timestamp;temperature;humidity
53272;DHT22;39160;48.580;7.756;2023-05-07T00:00:34;19.20;91.10
53272;DHT22;39160;48.580;7.756;2023-05-07T00:05:25;19.00;91.20
53272;DHT22;39160;48.580;7.756;2023-05-07T00:10:16;18.90;91.40
53272;DHT22;39160;48.580;7.756;2023-05-07T00:15:07;19.00;91.50
53272;DHT22;39160;48.580;7.756;2023-05-07T00:19:58;18.90;91.60
53272;DHT22;39160;48.580;7.756;2023-05-07T00:24:48;18.80;91.60
53272;DHT22;39160;48.580;7.756;2023-05-07T00:29:39;18.80;91.80
53272;DHT22;39160;48.580;7.756;2023-05-07T00:34:29;18.60;92.20
53272;DHT22;39160;48.580;7.756;2023-05-07T00:39:20;18.40;92.10
53272;DHT22;39160;48.580;7.756;2023-05-07T00:44:11;18.50;92.10
53272;DHT22;39160;48.580;7.756;2023-05-07T00:49:02;18.50;92.10
53272;DHT22;39160;48.580;7.756;2023-05-07T00:53:53;18.50;92.20
53272;DHT22;39160;48.580;7.756;2023-05-07T00:58:44;18.40;92.50
53272;DHT22;39160;48.580;7.756;2023-05-07T01:03:34;18.40;92.50
53272;DHT22;39160;48.580;7.756;2023-05-07T01:08:26;18.30;92.60
53272;DHT22;39160;48.580;7.756;2023-05-07T01:13:19;18.40;92.80
53272;DHT22;39160;48.580;7.756;2023-05-07T01:18:10;18.50;92.80
53272;DHT22;39160;48.580;7.756;2023-05-07T01:23:02;18.60;92.90
53272;DHT22;39160;48.580;7.756;2023-05-07T01:27:53;18.60;92.90
53272;DHT22;39160;48.580;7.756;2023-05-07T01:33:06;18.50;93.20
53272;DHT22;39160;48.580;7.756;2023-05-07T01:37:58;18.50;93.40
53272;DHT22;39160;48.580;7.756;2023-05-07T01:42:49;18.50;93.40
53272;DHT22;39160;48.580;7.756;2023-05-07T01:47:40;18.30;93.50
53272;DHT22;39160;48.580;7.756;2023-05-07T01:52:31;18.30;93.60
53272;DHT22;39160;48.580;7.756;2023-05-07T01:57:21;18.10;93.70
53272;DHT22;39160;48.580;7.756;2023-05-07T02:02:12;18.10;93.80
53272;DHT22;39160;48.580;7.756;2023-05-07T02:07:03;18.10;93.90
53272;DHT22;39160;48.580;7.756;2023-05-07T02:11:53;18.10;93.90
53272;DHT22;39160;48.580;7.756;2023-05-07T02:16:44;18.10;94.00
53272;DHT22;39160;48.580;7.756;2023-05-07T02:21:34;18.10;94.20
53272;DHT22;39160;48.580;7.756;2023-05-07T02:26:25;18.20;94.20
53272;DHT22;39160;48.580;7.756;2023-05-07T02:31:16;18.20;94.20
53272;DHT22;39160;48.580;7.756;2023-05-07T02:36:10;18.30;94.20
53272;DHT22;39160;48.580;7.756;2023-05-07T02:41:01;18.20;94.20
53272;DHT22;39160;48.580;7.756;2023-05-07T02:46:02;18.00;94.40
53272;DHT22;39160;48.580;7.756;2023-05-07T02:50:53;18.10;94.50
53272;DHT22;39160;48.580;7.756;2023-05-07T02:55:44;18.00;94.50
53272;DHT22;39160;48.580;7.756;2023-05-07T03:00:34;17.90;94.50
53272;DHT22;39160;48.580;7.756;2023-05-07T03:05:25;18.10;94.60
53272;DHT22;39160;48.580;7.756;2023-05-07T03:10:15;18.00;94.60
53272;DHT22;39160;48.580;7.756;2023-05-07T03:15:07;17.90;94.90
53272;DHT22;39160;48.580;7.756;2023-05-07T03:19:58;17.80;94.90
53272;DHT22;39160;48.580;7.756;2023-05-07T03:24:48;17.80;95.00
53272;DHT22;39160;48.580;7.756;2023-05-07T03:29:39;17.70;95.10
53272;DHT22;39160;48.580;7.756;2023-05-07T03:34:30;17.60;95.20
53272;DHT22;39160;48.580;7.756;2023-05-07T03:39:20;17.30;95.50
53272;DHT22;39160;48.580;7.756;2023-05-07T03:44:11;17.20;95.70
53272;DHT22;39160;48.580;7.756;2023-05-07T03:49:02;17.10;95.70
53272;DHT22;39160;48.580;7.756;2023-05-07T03:53:52;17.20;95.90
53272;DHT22;39160;48.580;7.756;2023-05-07T03:58:43;17.50;95.60
53272;DHT22;39160;48.580;7.756;2023-05-07T04:03:34;17.50;95.80
53272;DHT22;39160;48.580;7.756;2023-05-07T04:08:24;17.50;95.80
53272;DHT22;39160;48.580;7.756;2023-05-07T04:13:15;17.50;95.90
53272;DHT22;39160;48.580;7.756;2023-05-07T04:18:06;17.30;96.10
53272;DHT22;39160;48.580;7.756;2023-05-07T04:22:56;17.40;96.10
53272;DHT22;39160;48.580;7.756;2023-05-07T04:27:47;17.30;96.20
53272;DHT22;39160;48.580;7.756;2023-05-07T04:32:39;17.20;96.40
53272;DHT22;39160;48.580;7.756;2023-05-07T04:37:32;17.10;96.50
53272;DHT22;39160;48.580;7.756;2023-05-07T04:42:22;16.90;96.80
53272;DHT22;39160;48.580;7.756;2023-05-07T04:47:14;17.00;96.90
53272;DHT22;39160;48.580;7.756;2023-05-07T04:52:05;17.10;96.80
53272;DHT22;39160;48.580;7.756;2023-05-07T04:56:56;17.00;96.90
53272;DHT22;39160;48.580;7.756;2023-05-07T05:01:46;16.90;97.10
53272;DHT22;39160;48.580;7.756;2023-05-07T05:06:37;17.00;97.20
53272;DHT22;39160;48.580;7.756;2023-05-07T05:11:28;17.00;97.30
53272;DHT22;39160;48.580;7.756;2023-05-07T05:16:18;17.00;97.60
53272;DHT22;39160;48.580;7.756;2023-05-07T05:21:09;17.20;97.40
53272;DHT22;39160;48.580;7.756;2023-05-07T05:26:00;17.10;97.70
53272;DHT22;39160;48.580;7.756;2023-05-07T05:30:50;17.30;97.80
53272;DHT22;39160;48.580;7.756;2023-05-07T05:35:41;17.40;97.70
53272;DHT22;39160;48.580;7.756;2023-05-07T05:40:32;17.40;97.80
53272;DHT22;39160;48.580;7.756;2023-05-07T05:45:23;17.40;98.00
53272;DHT22;39160;48.580;7.756;2023-05-07T05:50:14;17.40;98.00
53272;DHT22;39160;48.580;7.756;2023-05-07T05:55:06;17.20;98.10
53272;DHT22;39160;48.580;7.756;2023-05-07T05:59:57;17.60;98.00
53272;DHT22;39160;48.580;7.756;2023-05-07T06:04:48;17.80;97.80
53272;DHT22;39160;48.580;7.756;2023-05-07T06:09:38;17.70;97.80
53272;DHT22;39160;48.580;7.756;2023-05-07T06:14:29;17.70;98.10
53272;DHT22;39160;48.580;7.756;2023-05-07T06:19:20;17.90;98.00
53272;DHT22;39160;48.580;7.756;2023-05-07T06:24:13;17.80;98.00
53272;DHT22;39160;48.580;7.756;2023-05-07T06:29:04;17.80;98.30
53272;DHT22;39160;48.580;7.756;2023-05-07T06:33:54;18.00;98.00
53272;DHT22;39160;48.580;7.756;2023-05-07T06:38:45;18.10;98.00
53272;DHT22;39160;48.580;7.756;2023-05-07T06:43:36;18.00;98.30
53272;DHT22;39160;48.580;7.756;2023-05-07T06:48:27;17.90;98.40
53272;DHT22;39160;48.580;7.756;2023-05-07T06:53:17;18.00;98.50
53272;DHT22;39160;48.580;7.756;2023-05-07T06:58:08;18.30;98.30
53272;DHT22;39160;48.580;7.756;2023-05-07T07:02:58;18.50;98.30
53272;DHT22;39160;48.580;7.756;2023-05-07T07:07:50;18.70;98.20
53272;DHT22;39160;48.580;7.756;2023-05-07T07:12:43;18.60;98.30
53272;DHT22;39160;48.580;7.756;2023-05-07T07:17:34;18.60;98.30
53272;DHT22;39160;48.580;7.756;2023-05-07T07:22:25;18.80;98.30
53272;DHT22;39160;48.580;7.756;2023-05-07T07:27:16;18.90;98.20
53272;DHT22;39160;48.580;7.756;2023-05-07T07:32:06;18.80;98.40
53272;DHT22;39160;48.580;7.756;2023-05-07T07:36:57;18.90;98.50
53272;DHT22;39160;48.580;7.756;2023-05-07T07:41:48;19.10;98.40
53272;DHT22;39160;48.580;7.756;2023-05-07T07:46:38;19.50;98.30
53272;DHT22;39160;48.580;7.756;2023-05-07T07:51:29;19.70;98.20
53272;DHT22;39160;48.580;7.756;2023-05-07T07:56:20;19.90;98.40
53272;DHT22;39160;48.580;7.756;2023-05-07T08:01:11;20.20;98.20
53272;DHT22;39160;48.580;7.756;2023-05-07T08:06:03;20.50;98.30
53272;DHT22;39160;48.580;7.756;2023-05-07T08:10:53;20.90;98.10
53272;DHT22;39160;48.580;7.756;2023-05-07T08:15:44;20.80;98.10
53272;DHT22;39160;48.580;7.756;2023-05-07T08:20:35;20.40;98.40
53272;DHT22;39160;48.580;7.756;2023-05-07T08:25:29;20.60;98.30
53272;DHT22;39160;48.580;7.756;2023-05-07T08:30:20;20.70;98.00
53272;DHT22;39160;48.580;7.756;2023-05-07T08:35:10;20.70;98.10
53272;DHT22;39160;48.580;7.756;2023-05-07T08:40:01;20.90;97.80
53272;DHT22;39160;48.580;7.756;2023-05-07T08:44:56;20.90;97.80
53272;DHT22;39160;48.580;7.756;2023-05-07T08:49:47;21.10;97.60
53272;DHT22;39160;48.580;7.756;2023-05-07T08:54:38;21.40;97.50
53272;DHT22;39160;48.580;7.756;2023-05-07T08:59:29;21.40;97.30
53272;DHT22;39160;48.580;7.756;2023-05-07T09:04:20;21.20;97.40
53272;DHT22;39160;48.580;7.756;2023-05-07T09:09:14;21.50;97.20
53272;DHT22;39160;48.580;7.756;2023-05-07T09:14:07;21.40;97.10
53272;DHT22;39160;48.580;7.756;2023-05-07T09:18:59;21.70;97.10
53272;DHT22;39160;48.580;7.756;2023-05-07T09:23:51;22.00;96.90
53272;DHT22;39160;48.580;7.756;2023-05-07T09:28:43;22.00;96.80
53272;DHT22;39160;48.580;7.756;2023-05-07T09:33:33;22.00;96.80
53272;DHT22;39160;48.580;7.756;2023-05-07T09:38:25;22.20;96.50
53272;DHT22;39160;48.580;7.756;2023-05-07T09:43:17;22.10;96.40
53272;DHT22;39160;48.580;7.756;2023-05-07T09:48:07;22.20;96.30
53272;DHT22;39160;48.580;7.756;2023-05-07T09:52:59;22.50;96.10
53272;DHT22;39160;48.580;7.756;2023-05-07T09:57:51;22.20;96.10
53272;DHT22;39160;48.580;7.756;2023-05-07T10:02:43;21.90;96.30
53272;DHT22;39160;48.580;7.756;2023-05-07T10:07:38;21.90;96.20
53272;DHT22;39160;48.580;7.756;2023-05-07T10:12:30;22.10;96.00
53272;DHT22;39160;48.580;7.756;2023-05-07T10:17:28;22.00;96.00
53272;DHT22;39160;48.580;7.756;2023-05-07T10:22:19;21.90;96.00
53272;DHT22;39160;48.580;7.756;2023-05-07T10:27:12;21.90;95.80
53272;DHT22;39160;48.580;7.756;2023-05-07T10:37:19;22.10;95.40
53272;DHT22;39160;48.580;7.756;2023-05-07T10:42:11;22.20;95.30
53272;DHT22;39160;48.580;7.756;2023-05-07T10:47:13;22.30;95.00
53272;DHT22;39160;48.580;7.756;2023-05-07T10:52:16;22.50;94.80
53272;DHT22;39160;48.580;7.756;2023-05-07T10:57:35;22.70;94.70
53272;DHT22;39160;48.580;7.756;2023-05-07T11:07:55;22.60;94.70
53272;DHT22;39160;48.580;7.756;2023-05-07T11:12:46;22.80;94.70
53272;DHT22;39160;48.580;7.756;2023-05-07T11:17:54;23.00;94.70
53272;DHT22;39160;48.580;7.756;2023-05-07T11:22:45;23.20;94.60
53272;DHT22;39160;48.580;7.756;2023-05-07T11:27:36;23.50;94.70
53272;DHT22;39160;48.580;7.756;2023-05-07T11:32:31;23.80;94.30
53272;DHT22;39160;48.580;7.756;2023-05-07T11:37:23;23.70;94.20
53272;DHT22;39160;48.580;7.756;2023-05-07T11:42:31;23.60;94.20
53272;DHT22;39160;48.580;7.756;2023-05-07T11:47:22;23.40;94.10
53272;DHT22;39160;48.580;7.756;2023-05-07T11:52:13;23.30;94.20
53272;DHT22;39160;48.580;7.756;2023-05-07T11:57:03;23.10;94.00
53272;DHT22;39160;48.580;7.756;2023-05-07T12:01:57;23.20;94.00
53272;DHT22;39160;48.580;7.756;2023-05-07T12:06:53;23.40;93.80
53272;DHT22;39160;48.580;7.756;2023-05-07T12:11:46;23.50;93.80
53272;DHT22;39160;48.580;7.756;2023-05-07T12:16:37;23.60;94.00
53272;DHT22;39160;48.580;7.756;2023-05-07T12:21:30;23.00;94.00
53272;DHT22;39160;48.580;7.756;2023-05-07T12:26:20;22.70;94.20
53272;DHT22;39160;48.580;7.756;2023-05-07T12:31:14;22.70;94.20
53272;DHT22;39160;48.580;7.756;2023-05-07T12:36:06;22.50;94.20
53272;DHT22;39160;48.580;7.756;2023-05-07T12:40:58;22.40;94.30
53272;DHT22;39160;48.580;7.756;2023-05-07T12:45:49;22.40;94.30
53272;DHT22;39160;48.580;7.756;2023-05-07T12:50:41;22.30;94.30
53272;DHT22;39160;48.580;7.756;2023-05-07T12:55:32;22.30;94.30
53272;DHT22;39160;48.580;7.756;2023-05-07T13:00:34;22.40;94.30
53272;DHT22;39160;48.580;7.756;2023-05-07T13:05:25;22.40;94.50
53272;DHT22;39160;48.580;7.756;2023-05-07T13:10:17;22.50;94.60
53272;DHT22;39160;48.580;7.756;2023-05-07T13:15:08;22.40;94.80
53272;DHT22;39160;48.580;7.756;2023-05-07T13:19:58;22.20;95.20
53272;DHT22;39160;48.580;7.756;2023-05-07T13:24:49;22.10;95.50
53272;DHT22;39160;48.580;7.756;2023-05-07T13:29:40;22.20;95.70
53272;DHT22;39160;48.580;7.756;2023-05-07T13:34:31;22.40;95.80
53272;DHT22;39160;48.580;7.756;2023-05-07T13:39:21;22.30;96.30
53272;DHT22;39160;48.580;7.756;2023-05-07T13:44:12;22.10;96.70
53272;DHT22;39160;48.580;7.756;2023-05-07T13:49:03;21.90;97.10
53272;DHT22;39160;48.580;7.756;2023-05-07T13:53:53;21.90;97.30
53272;DHT22;39160;48.580;7.756;2023-05-07T13:58:44;22.30;97.50
53272;DHT22;39160;48.580;7.756;2023-05-07T14:03:35;22.50;97.50
53272;DHT22;39160;48.580;7.756;2023-05-07T14:08:28;22.60;97.60
53272;DHT22;39160;48.580;7.756;2023-05-07T14:13:18;22.40;97.70
53272;DHT22;39160;48.580;7.756;2023-05-07T14:18:09;22.20;98.00
53272;DHT22;39160;48.580;7.756;2023-05-07T14:23:00;22.00;98.00
53272;DHT22;39160;48.580;7.756;2023-05-07T14:27:50;21.90;98.00
53272;DHT22;39160;48.580;7.756;2023-05-07T14:32:41;22.20;97.90
53272;DHT22;39160;48.580;7.756;2023-05-07T14:37:31;22.20;97.70
53272;DHT22;39160;48.580;7.756;2023-05-07T14:42:22;22.40;97.70
53272;DHT22;39160;48.580;7.756;2023-05-07T14:47:13;22.20;97.60
53272;DHT22;39160;48.580;7.756;2023-05-07T14:52:03;22.00;97.60
53272;DHT22;39160;48.580;7.756;2023-05-07T14:56:56;22.00;97.40
53272;DHT22;39160;48.580;7.756;2023-05-07T15:01:47;22.10;97.30
53272;DHT22;39160;48.580;7.756;2023-05-07T15:06:38;22.20;97.00
53272;DHT22;39160;48.580;7.756;2023-05-07T15:11:29;22.60;96.80
53272;DHT22;39160;48.580;7.756;2023-05-07T15:16:19;22.80;96.70
53272;DHT22;39160;48.580;7.756;2023-05-07T15:21:10;23.10;96.50
53272;DHT22;39160;48.580;7.756;2023-05-07T15:26:01;23.40;96.40
53272;DHT22;39160;48.580;7.756;2023-05-07T15:30:52;24.20;96.00
53272;DHT22;39160;48.580;7.756;2023-05-07T15:35:43;24.50;95.80
53272;DHT22;39160;48.580;7.756;2023-05-07T15:40:34;24.30;95.90
53272;DHT22;39160;48.580;7.756;2023-05-07T15:45:28;24.30;95.90
53272;DHT22;39160;48.580;7.756;2023-05-07T15:50:18;24.30;95.60
53272;DHT22;39160;48.580;7.756;2023-05-07T15:55:09;23.90;95.90
53272;DHT22;39160;48.580;7.756;2023-05-07T16:00:00;23.90;95.70
53272;DHT22;39160;48.580;7.756;2023-05-07T16:04:51;23.90;95.80
53272;DHT22;39160;48.580;7.756;2023-05-07T16:09:41;24.00;95.60
53272;DHT22;39160;48.580;7.756;2023-05-07T16:14:32;24.70;95.10
53272;DHT22;39160;48.580;7.756;2023-05-07T16:19:23;25.40;94.50
53272;DHT22;39160;48.580;7.756;2023-05-07T16:24:13;25.80;94.10
53272;DHT22;39160;48.580;7.756;2023-05-07T16:29:04;25.10;94.20
53272;DHT22;39160;48.580;7.756;2023-05-07T16:33:56;24.50;94.70
53272;DHT22;39160;48.580;7.756;2023-05-07T16:38:47;24.10;94.60
53272;DHT22;39160;48.580;7.756;2023-05-07T16:43:37;23.70;94.60
53272;DHT22;39160;48.580;7.756;2023-05-07T16:48:28;23.50;94.80
53272;DHT22;39160;48.580;7.756;2023-05-07T16:53:18;23.90;94.40
53272;DHT22;39160;48.580;7.756;2023-05-07T16:58:10;23.80;94.70
53272;DHT22;39160;48.580;7.756;2023-05-07T17:03:02;24.10;94.40
53272;DHT22;39160;48.580;7.756;2023-05-07T17:07:54;24.50;93.70
53272;DHT22;39160;48.580;7.756;2023-05-07T17:12:44;23.20;94.70
53272;DHT22;39160;48.580;7.756;2023-05-07T17:17:35;22.50;95.30
53272;DHT22;39160;48.580;7.756;2023-05-07T17:22:26;22.30;95.50
53272;DHT22;39160;48.580;7.756;2023-05-07T17:27:16;22.10;95.60
53272;DHT22;39160;48.580;7.756;2023-05-07T17:32:07;22.20;95.40
53272;DHT22;39160;48.580;7.756;2023-05-07T17:36:58;22.00;95.30
53272;DHT22;39160;48.580;7.756;2023-05-07T17:41:49;21.80;95.30
53272;DHT22;39160;48.580;7.756;2023-05-07T17:46:40;21.70;95.40
53272;DHT22;39160;48.580;7.756;2023-05-07T17:51:30;21.70;95.40
53272;DHT22;39160;48.580;7.756;2023-05-07T17:56:21;21.70;95.40
53272;DHT22;39160;48.580;7.756;2023-05-07T18:01:12;21.50;95.40
53272;DHT22;39160;48.580;7.756;2023-05-07T18:06:02;21.50;95.40
53272;DHT22;39160;48.580;7.756;2023-05-07T18:10:53;21.50;95.50
53272;DHT22;39160;48.580;7.756;2023-05-07T18:15:44;21.40;95.50
53272;DHT22;39160;48.580;7.756;2023-05-07T18:20:35;21.50;95.50
53272;DHT22;39160;48.580;7.756;2023-05-07T18:25:26;21.40;95.50
53272;DHT22;39160;48.580;7.756;2023-05-07T18:30:16;21.30;95.60
53272;DHT22;39160;48.580;7.756;2023-05-07T18:35:07;21.20;95.70
53272;DHT22;39160;48.580;7.756;2023-05-07T18:39:58;21.30;95.60
53272;DHT22;39160;48.580;7.756;2023-05-07T18:44:53;21.20;95.80
53272;DHT22;39160;48.580;7.756;2023-05-07T18:49:44;21.00;96.00
53272;DHT22;39160;48.580;7.756;2023-05-07T18:54:34;20.90;96.00
53272;DHT22;39160;48.580;7.756;2023-05-07T18:59:25;21.00;95.90
53272;DHT22;39160;48.580;7.756;2023-05-07T19:04:16;21.00;96.10
53272;DHT22;39160;48.580;7.756;2023-05-07T19:09:07;21.00;96.10
53272;DHT22;39160;48.580;7.756;2023-05-07T19:13:58;21.00;96.30
53272;DHT22;39160;48.580;7.756;2023-05-07T19:18:48;20.90;96.40
53272;DHT22;39160;48.580;7.756;2023-05-07T19:23:39;21.00;96.40
53272;DHT22;39160;48.580;7.756;2023-05-07T19:28:33;21.00;96.50
53272;DHT22;39160;48.580;7.756;2023-05-07T19:33:24;21.00;96.50
53272;DHT22;39160;48.580;7.756;2023-05-07T19:38:15;21.00;96.50
53272;DHT22;39160;48.580;7.756;2023-05-07T19:43:05;20.90;96.60
53272;DHT22;39160;48.580;7.756;2023-05-07T19:47:56;20.90;96.50
53272;DHT22;39160;48.580;7.756;2023-05-07T19:52:47;20.80;96.70
53272;DHT22;39160;48.580;7.756;2023-05-07T19:57:37;20.80;96.80
53272;DHT22;39160;48.580;7.756;2023-05-07T20:02:28;20.70;97.00
53272;DHT22;39160;48.580;7.756;2023-05-07T20:07:19;20.50;97.40
53272;DHT22;39160;48.580;7.756;2023-05-07T20:12:09;20.20;97.80
53272;DHT22;39160;48.580;7.756;2023-05-07T20:17:00;20.10;98.00
53272;DHT22;39160;48.580;7.756;2023-05-07T20:21:51;20.00;98.30
53272;DHT22;39160;48.580;7.756;2023-05-07T20:26:42;20.00;98.40
53272;DHT22;39160;48.580;7.756;2023-05-07T20:31:33;20.00;98.40
53272;DHT22;39160;48.580;7.756;2023-05-07T20:36:24;20.00;98.60
53272;DHT22;39160;48.580;7.756;2023-05-07T20:41:15;20.10;98.60
53272;DHT22;39160;48.580;7.756;2023-05-07T20:46:07;19.90;98.80
53272;DHT22;39160;48.580;7.756;2023-05-07T20:50:59;19.70;99.00
53272;DHT22;39160;48.580;7.756;2023-05-07T20:55:50;19.70;99.20
53272;DHT22;39160;48.580;7.756;2023-05-07T21:00:41;19.80;99.30
53272;DHT22;39160;48.580;7.756;2023-05-07T21:05:32;19.70;99.30
53272;DHT22;39160;48.580;7.756;2023-05-07T21:10:22;19.70;99.40
53272;DHT22;39160;48.580;7.756;2023-05-07T21:15:13;19.60;99.70
53272;DHT22;39160;48.580;7.756;2023-05-07T21:20:04;19.60;99.80
53272;DHT22;39160;48.580;7.756;2023-05-07T21:24:55;19.70;99.80
53272;DHT22;39160;48.580;7.756;2023-05-07T21:29:46;19.80;99.90
53272;DHT22;39160;48.580;7.756;2023-05-07T21:34:36;19.70;99.90
53272;DHT22;39160;48.580;7.756;2023-05-07T21:39:27;19.60;99.90
53272;DHT22;39160;48.580;7.756;2023-05-07T21:44:18;19.30;99.90
53272;DHT22;39160;48.580;7.756;2023-05-07T21:49:08;19.20;99.90
53272;DHT22;39160;48.580;7.756;2023-05-07T21:53:59;19.10;99.90
53272;DHT22;39160;48.580;7.756;2023-05-07T21:58:50;19.30;99.90
53272;DHT22;39160;48.580;7.756;2023-05-07T22:03:40;19.40;99.90
53272;DHT22;39160;48.580;7.756;2023-05-07T22:08:31;19.30;99.90
53272;DHT22;39160;48.580;7.756;2023-05-07T22:13:21;19.20;99.90
53272;DHT22;39160;48.580;7.756;2023-05-07T22:18:12;19.30;99.90
53272;DHT22;39160;48.580;7.756;2023-05-07T22:23:03;19.10;99.90
53272;DHT22;39160;48.580;7.756;2023-05-07T22:27:53;19.10;99.90
53272;DHT22;39160;48.580;7.756;2023-05-07T22:32:44;19.30;99.90
53272;DHT22;39160;48.580;7.756;2023-05-07T22:37:35;19.30;99.90
53272;DHT22;39160;48.580;7.756;2023-05-07T22:42:25;19.20;99.90
53272;DHT22;39160;48.580;7.756;2023-05-07T22:47:16;19.20;99.90
53272;DHT22;39160;48.580;7.756;2023-05-07T22:52:07;19.00;99.90
53272;DHT22;39160;48.580;7.756;2023-05-07T22:56:57;19.00;99.90
53272;DHT22;39160;48.580;7.756;2023-05-07T23:01:49;19.00;99.90
53272;DHT22;39160;48.580;7.756;2023-05-07T23:06:39;19.10;99.90
53272;DHT22;39160;48.580;7.756;2023-05-07T23:11:30;18.90;99.90
53272;DHT22;39160;48.580;7.756;2023-05-07T23:16:21;18.90;99.90
53272;DHT22;39160;48.580;7.756;2023-05-07T23:21:12;18.90;99.90
53272;DHT22;39160;48.580;7.756;2023-05-07T23:26:03;18.90;99.90
53272;DHT22;39160;48.580;7.756;2023-05-07T23:30:53;19.00;99.90
53272;DHT22;39160;48.580;7.756;2023-05-07T23:35:44;19.00;99.90
53272;DHT22;39160;48.580;7.756;2023-05-07T23:40:35;19.00;99.90
53272;DHT22;39160;48.580;7.756;2023-05-07T23:45:26;19.00;99.90
53272;DHT22;39160;48.580;7.756;2023-05-07T23:50:16;19.00;99.90
53272;DHT22;39160;48.580;7.756;2023-05-07T23:55:07;18.90;99.90
53272;DHT22;39160;48.580;7.756;2023-05-07T23:59:58;18.90;99.90
